createdAt,value
2022-09-17T00:00:09.088Z,12.68999958
2022-09-17T00:01:09.998Z,12.68000031
2022-09-17T00:02:03.365Z,12.68999958
2022-09-17T00:03:04.285Z,12.67000008
2022-09-17T00:03:55.572Z,12.68999958
2022-09-17T00:04:56.725Z,12.68999958
2022-09-17T00:05:48.141Z,12.68000031
2022-09-17T00:06:48.833Z,12.67000008
2022-09-17T00:07:42.049Z,12.67000008
2022-09-17T00:09:33.946Z,12.67000008
2022-09-17T00:10:39.405Z,12.68000031
2022-09-17T00:11:34.536Z,12.71000004
2022-09-17T00:12:38.596Z,12.72000027
2022-09-17T00:14:31.166Z,12.68999958
2022-09-17T00:15:26.863Z,12.67000008
2022-09-17T00:16:25.776Z,12.64999962
2022-09-17T00:17:24.146Z,12.60999966
2022-09-17T00:19:18.389Z,12.61999989
2022-09-17T00:21:03.087Z,12.64999962
2022-09-17T00:21:42.515Z,12.68999958
2022-09-17T00:22:45.634Z,12.72999954
2022-09-17T00:23:46.805Z,12.72000027
2022-09-17T00:24:45.307Z,12.68999958
2022-09-17T00:25:40.570Z,12.65999985
2022-09-17T00:26:38.582Z,12.65999985
2022-09-17T00:27:39.469Z,12.61999989
2022-09-17T00:29:33.107Z,12.61999989
2022-09-17T00:30:31.069Z,12.59000015
2022-09-17T00:31:29.562Z,12.56000042
2022-09-17T00:32:24.985Z,12.56000042
2022-09-17T00:33:29.850Z,12.56000042
2022-09-17T00:34:21.646Z,12.53999996
2022-09-17T00:35:23.589Z,12.53999996
2022-09-17T00:36:16.328Z,12.53999996
2022-09-17T00:37:18.893Z,12.52000046
2022-09-17T00:38:12.223Z,12.52999973
2022-09-17T00:40:09.243Z,12.52999973
2022-09-17T00:41:11.832Z,12.52000046
2022-09-17T00:42:08.773Z,12.52000046
2022-09-17T00:43:10.827Z,12.52000046
2022-09-17T00:44:06.898Z,12.51000023
2022-09-17T00:45:09.058Z,12.5
2022-09-17T00:46:03.207Z,12.48999977
2022-09-17T00:47:05.604Z,12.48999977
2022-09-17T00:48:51.452Z,12.56999969
2022-09-17T00:49:31.432Z,12.64000034
2022-09-17T00:50:35.758Z,12.65999985
2022-09-17T00:51:33.271Z,12.63000011
2022-09-17T00:52:32.717Z,12.60000038
2022-09-17T00:54:28.894Z,12.53999996
2022-09-17T00:55:29.315Z,12.52000046
2022-09-17T00:56:25.586Z,12.48999977
2022-09-17T00:57:26.455Z,12.47999954
2022-09-17T00:59:23.601Z,12.46000004
2022-09-17T01:00:18.765Z,12.43999958
2022-09-17T01:01:20.533Z,12.43999958
2022-09-17T01:02:14.476Z,12.43000031
2022-09-17T01:03:20.967Z,12.40999985
2022-09-17T01:04:19.936Z,12.40999985
2022-09-17T01:05:22.386Z,12.38000011
2022-09-17T01:06:17.483Z,12.35999966
2022-09-17T01:07:15.350Z,12.34000015
2022-09-17T01:08:17.725Z,12.35999966
2022-09-17T01:10:11.640Z,12.38000011
2022-09-17T01:11:03.376Z,12.38000011
2022-09-17T01:12:04.123Z,12.36999989
2022-09-17T01:13:04.593Z,12.35000038
2022-09-17T01:15:01.986Z,12.34000015
2022-09-17T01:15:54.683Z,12.32999992
2022-09-17T01:16:53.738Z,12.34000015
2022-09-17T01:17:49.049Z,12.32999992
2022-09-17T01:19:44.204Z,12.32999992
2022-09-17T01:20:47.206Z,12.32999992
2022-09-17T01:21:42.447Z,12.32999992
2022-09-17T01:22:41.581Z,12.31999969
2022-09-17T01:24:38.288Z,12.32999992
2022-09-17T01:25:42.342Z,12.31000042
2022-09-17T01:26:34.188Z,12.31000042
2022-09-17T01:27:35.773Z,12.31999969
2022-09-17T01:29:32.019Z,12.31999969
2022-09-17T01:30:26.469Z,12.32999992
2022-09-17T01:31:54.863Z,12.34000015
2022-09-17T01:32:36.197Z,12.36999989
2022-09-17T01:34:37.618Z,12.36999989
2022-09-17T01:35:37.907Z,12.35000038
2022-09-17T01:36:33.267Z,12.34000015
2022-09-17T01:37:31.771Z,12.30000019
2022-09-17T01:39:28.621Z,12.26000023
2022-09-17T01:40:31.853Z,12.27999973
2022-09-17T01:41:25.626Z,12.23999977
2022-09-17T01:42:26.786Z,12.25
2022-09-17T01:43:28.679Z,12.25
2022-09-17T01:44:35.026Z,12.22000027
2022-09-17T01:45:35.844Z,12.19999981
2022-09-17T01:46:37.267Z,12.18999958
2022-09-17T01:47:32.528Z,12.15999985
2022-09-17T01:49:37.956Z,12.14000034
2022-09-17T01:50:33.449Z,12.13000011
2022-09-17T01:51:36.187Z,12.13000011
2022-09-17T01:52:33.716Z,12.13000011
2022-09-17T01:54:32.620Z,12.14999962
2022-09-17T01:55:35.967Z,12.14000034
2022-09-17T01:56:28.984Z,12.14000034
2022-09-17T01:57:28.741Z,12.14000034
2022-09-17T01:59:36.200Z,12.13000011
2022-09-17T02:00:28.912Z,12.11999989
2022-09-17T02:01:31.336Z,12.11999989
2022-09-17T02:02:27.791Z,12.13000011
2022-09-17T02:03:28.244Z,12.14000034
2022-09-17T02:04:30.262Z,12.13000011
2022-09-17T02:05:29.122Z,12.10999966
2022-09-17T02:06:32.880Z,12.10000038
2022-09-17T02:07:26.287Z,12.11999989
2022-09-17T02:09:32.214Z,12.14000034
2022-09-17T02:10:38.022Z,12.14000034
2022-09-17T02:11:32.665Z,12.14000034
2022-09-17T02:12:37.313Z,12.14000034
2022-09-17T02:14:24.346Z,12.23999977
2022-09-17T02:15:10.673Z,12.27999973
2022-09-17T02:16:09.966Z,12.28999996
2022-09-17T02:17:16.547Z,12.27999973
2022-09-17T02:18:19.699Z,12.26000023
2022-09-17T02:20:23.343Z,12.23999977
2022-09-17T02:21:19.916Z,12.22000027
2022-09-17T02:22:20.926Z,12.21000004
2022-09-17T02:23:17.298Z,12.22000027
2022-09-17T02:25:16.498Z,12.21000004
2022-09-17T02:26:18.973Z,12.19999981
2022-09-17T02:27:21.522Z,12.17000008
2022-09-17T02:28:25.721Z,12.15999985
2022-09-17T02:29:24.685Z,12.15999985
2022-09-17T02:30:26.045Z,12.14000034
2022-09-17T02:31:24.292Z,12.11999989
2022-09-17T02:32:31.552Z,12.11999989
2022-09-17T02:34:31.029Z,12.14999962
2022-09-17T02:35:30.227Z,12.18000031
2022-09-17T02:36:33.916Z,12.19999981
2022-09-17T02:37:29.198Z,12.18999958
2022-09-17T02:39:28.648Z,12.22000027
2022-09-17T02:40:30.856Z,12.19999981
2022-09-17T02:41:27.879Z,12.18999958
2022-09-17T02:42:35.187Z,12.17000008
2022-09-17T02:44:32.661Z,12.17000008
2022-09-17T02:45:33.036Z,12.14999962
2022-09-17T02:46:32.260Z,12.11999989
2022-09-17T02:47:38.112Z,12.13000011
2022-09-17T02:49:33.240Z,12.15999985
2022-09-17T02:51:03.368Z,12.15999985
2022-09-17T02:51:44.795Z,12.19999981
2022-09-17T02:52:42.999Z,12.23999977
2022-09-17T02:53:41.126Z,12.26000023
2022-09-17T02:54:41.721Z,12.25
2022-09-17T02:55:39.798Z,12.22999954
2022-09-17T02:56:39.764Z,12.19999981
2022-09-17T02:57:34.966Z,12.18999958
2022-09-17T02:58:42.038Z,12.19999981
2022-09-17T02:59:37.371Z,12.18999958
2022-09-17T03:00:37.726Z,12.15999985
2022-09-17T03:01:32.228Z,12.15999985
2022-09-17T03:02:32.101Z,12.15999985
2022-09-17T03:04:38.208Z,12.15999985
2022-09-17T03:05:32.471Z,12.14000034
2022-09-17T03:06:36.359Z,12.14000034
2022-09-17T03:07:32.081Z,12.13000011
2022-09-17T03:09:35.623Z,12.14000034
2022-09-17T03:10:34.178Z,12.14999962
2022-09-17T03:11:28.899Z,12.14000034
2022-09-17T03:12:32.261Z,12.11999989
2022-09-17T03:14:27.566Z,12.10999966
2022-09-17T03:15:27.934Z,12.10000038
2022-09-17T03:16:23.136Z,12.09000015
2022-09-17T03:17:26.115Z,12.06999969
2022-09-17T03:18:18.745Z,12.10000038
2022-09-17T03:20:19.391Z,12.09000015
2022-09-17T03:21:21.561Z,12.09000015
2022-09-17T03:22:17.065Z,12.07999992
2022-09-17T03:23:18.312Z,12.07999992
2022-09-17T03:25:21.095Z,12.06999969
2022-09-17T03:26:13.382Z,12.07999992
2022-09-17T03:27:13.154Z,12.06999969
2022-09-17T03:28:08.185Z,12.09000015
2022-09-17T03:29:09.672Z,12.10000038
2022-09-17T03:30:04.191Z,12.09000015
2022-09-17T03:31:04.480Z,12.06999969
2022-09-17T03:31:58.946Z,12.06999969
2022-09-17T03:32:58.517Z,12.06999969
2022-09-17T03:34:53.748Z,12.09000015
2022-09-17T03:36:01.388Z,12.07999992
2022-09-17T03:37:47.274Z,12.17000008
2022-09-17T03:38:28.248Z,12.25
2022-09-17T03:39:25.014Z,12.28999996
2022-09-17T03:40:24.279Z,12.27000046
2022-09-17T03:41:27.356Z,12.25
2022-09-17T03:42:23.471Z,12.22999954
2022-09-17T03:43:24.835Z,12.19999981
2022-09-17T03:45:24.456Z,12.18000031
2022-09-17T03:46:24.523Z,12.17000008
2022-09-17T03:47:19.988Z,12.17000008
2022-09-17T03:48:19.701Z,12.15999985
2022-09-17T03:49:15.951Z,12.17000008
2022-09-17T03:50:19.387Z,12.17000008
2022-09-17T03:51:19.468Z,12.14999962
2022-09-17T03:52:16.596Z,12.13000011
2022-09-17T03:53:19.923Z,12.14999962
2022-09-17T03:55:17.695Z,12.13000011
2022-09-17T03:56:16.753Z,12.13000011
2022-09-17T03:57:28.317Z,12.14000034
2022-09-17T03:58:23.986Z,12.14999962
2022-09-17T03:59:23.717Z,12.15999985
2022-09-17T04:00:18.931Z,12.14999962
2022-09-17T04:01:21.254Z,12.14999962
2022-09-17T04:02:19.374Z,12.14999962
2022-09-17T04:03:21.505Z,12.14999962
2022-09-17T04:05:17.131Z,12.17000008
2022-09-17T04:06:10.414Z,12.17000008
2022-09-17T04:07:13.838Z,12.18999958
2022-09-17T04:08:05.917Z,12.18999958
2022-09-17T04:10:00.172Z,12.21000004
2022-09-17T04:11:04.207Z,12.22000027
2022-09-17T04:11:56.018Z,12.22000027
2022-09-17T04:12:54.194Z,12.22999954
2022-09-17T04:13:53.072Z,12.25
2022-09-17T04:14:52.123Z,12.22000027
2022-09-17T04:16:15.026Z,12.19999981
2022-09-17T04:17:01.447Z,12.23999977
2022-09-17T04:17:59.749Z,12.27000046
2022-09-17T04:19:01.151Z,12.27999973
2022-09-17T04:19:57.710Z,12.26000023
2022-09-17T04:21:08.103Z,12.26000023
2022-09-17T04:22:06.030Z,12.22999954
2022-09-17T04:23:07.329Z,12.22999954
2022-09-17T04:24:06.564Z,12.22000027
2022-09-17T04:25:02.244Z,12.19999981
2022-09-17T04:26:03.206Z,12.19999981
2022-09-17T04:27:00.036Z,12.18999958
2022-09-17T04:28:01.825Z,12.18000031
2022-09-17T04:29:01.038Z,12.19999981
2022-09-17T04:30:02.689Z,12.17000008
2022-09-17T04:30:59.088Z,12.14999962
2022-09-17T04:32:02.066Z,12.14000034
2022-09-17T04:33:01.910Z,12.11999989
2022-09-17T04:34:01.129Z,12.13000011
2022-09-17T04:35:04.061Z,12.13000011
2022-09-17T04:36:09.668Z,12.13000011
2022-09-17T04:37:13.350Z,12.11999989
2022-09-17T04:38:17.641Z,12.11999989
2022-09-17T04:39:11.955Z,12.14999962
2022-09-17T04:40:18.859Z,12.14999962
2022-09-17T04:41:14.400Z,12.14000034
2022-09-17T04:42:16.615Z,12.14999962
2022-09-17T04:43:11.081Z,12.15999985
2022-09-17T04:45:06.614Z,12.17000008
2022-09-17T04:46:11.855Z,12.17000008
2022-09-17T04:47:08.286Z,12.17000008
2022-09-17T04:48:10.123Z,12.15999985
2022-09-17T04:50:10.812Z,12.17000008
2022-09-17T04:51:55.810Z,12.26000023
2022-09-17T04:52:35.254Z,12.31999969
2022-09-17T04:54:32.289Z,12.38000011
2022-09-17T04:55:33.694Z,12.35999966
2022-09-17T04:56:31.268Z,12.34000015
2022-09-17T04:57:25.614Z,12.34000015
2022-09-17T04:58:26.792Z,12.31999969
2022-09-17T04:59:22.103Z,12.31999969
2022-09-17T05:00:24.497Z,12.32999992
2022-09-17T05:01:20.174Z,12.35000038
2022-09-17T05:02:23.840Z,12.35000038
2022-09-17T05:04:27.550Z,12.31999969
2022-09-17T05:05:21.731Z,12.31000042
2022-09-17T05:06:22.442Z,12.30000019
2022-09-17T05:07:21.461Z,12.27999973
2022-09-17T05:08:21.923Z,12.28999996
2022-09-17T05:10:16.973Z,12.32999992
2022-09-17T05:11:14.900Z,12.32999992
2022-09-17T05:12:17.219Z,12.34000015
2022-09-17T05:13:11.291Z,12.32999992
2022-09-17T05:15:09.556Z,12.31000042
2022-09-17T05:16:10.182Z,12.28999996
2022-09-17T05:17:05.521Z,12.27999973
2022-09-17T05:18:04.491Z,12.27999973
2022-09-17T05:20:11.548Z,12.27000046
2022-09-17T05:21:13.780Z,12.26000023
2022-09-17T05:22:08.391Z,12.26000023
2022-09-17T05:23:11.342Z,12.26000023
2022-09-17T05:24:07.365Z,12.27000046
2022-09-17T05:25:04.119Z,12.26000023
2022-09-17T05:26:06.939Z,12.27000046
2022-09-17T05:26:58.899Z,12.26000023
2022-09-17T05:28:09.332Z,12.27000046
2022-09-17T05:30:08.648Z,12.27000046
2022-09-17T05:31:06.974Z,12.27000046
2022-09-17T05:32:05.402Z,12.27999973
2022-09-17T05:32:58.223Z,12.28999996
2022-09-17T05:34:02.313Z,12.31999969
2022-09-17T05:34:57.025Z,12.31999969
2022-09-17T05:36:00.740Z,12.31000042
2022-09-17T05:36:53.332Z,12.31000042
2022-09-17T05:37:56.057Z,12.31000042
2022-09-17T05:38:52.337Z,12.32999992
2022-09-17T05:40:40.319Z,12.39000034
2022-09-17T05:41:21.603Z,12.46000004
2022-09-17T05:42:22.668Z,12.47999954
2022-09-17T05:43:19.172Z,12.48999977
2022-09-17T05:45:24.098Z,12.43999958
2022-09-17T05:46:22.917Z,12.39999962
2022-09-17T05:47:25.001Z,12.39000034
2022-09-17T05:48:18.124Z,12.38000011
2022-09-17T05:50:12.117Z,12.38000011
2022-09-17T05:51:11.676Z,12.35999966
2022-09-17T05:52:07.020Z,12.36999989
2022-09-17T05:53:10.507Z,12.35999966
2022-09-17T05:55:05.190Z,12.35000038
2022-09-17T05:56:01.007Z,12.34000015
2022-09-17T05:57:03.500Z,12.35000038
2022-09-17T05:57:28.493Z,12.35999966
2022-09-17T05:59:26.515Z,12.36999989
2022-09-17T06:01:38.591Z,12.36999989
2022-09-17T06:02:19.064Z,12.39000034
2022-09-17T06:03:20.975Z,12.42000008
2022-09-17T06:05:21.300Z,12.40999985
2022-09-17T06:06:20.336Z,12.39999962
2022-09-17T06:07:15.164Z,12.39000034
2022-09-17T06:08:15.145Z,12.38000011
2022-09-17T06:10:10.835Z,12.35000038
2022-09-17T06:11:07.313Z,12.36999989
2022-09-17T06:12:09.626Z,12.34000015
2022-09-17T06:13:02.266Z,12.35000038
2022-09-17T06:15:00.997Z,12.35999966
2022-09-17T06:15:57.230Z,12.35999966
2022-09-17T06:17:01.810Z,12.34000015
2022-09-17T06:17:55.435Z,12.35000038
2022-09-17T06:18:59.057Z,12.35999966
2022-09-17T06:19:52.496Z,12.35000038
2022-09-17T06:20:56.123Z,12.35000038
2022-09-17T06:21:52.524Z,12.34000015
2022-09-17T06:22:52.456Z,12.34000015
2022-09-17T06:23:48.787Z,12.35000038
2022-09-17T06:24:50.959Z,12.35000038
2022-09-17T06:25:51.329Z,12.32999992
2022-09-17T06:27:34.311Z,12.38000011
2022-09-17T06:28:15.401Z,12.40999985
2022-09-17T06:30:14.866Z,12.46000004
2022-09-17T06:31:10.427Z,12.43999958
2022-09-17T06:32:14.074Z,12.42000008
2022-09-17T06:33:08.773Z,12.39999962
2022-09-17T06:35:08.176Z,12.40999985
2022-09-17T06:36:13.149Z,12.40999985
2022-09-17T06:36:14.362Z,12.40999985
2022-09-17T06:37:05.367Z,12.42000008
2022-09-17T06:38:04.593Z,12.43000031
2022-09-17T06:40:01.132Z,12.46000004
2022-09-17T06:41:00.846Z,12.43999958
2022-09-17T06:41:57.111Z,12.43000031
2022-09-17T06:42:59.032Z,12.39999962
2022-09-17T06:43:53.134Z,12.43000031
2022-09-17T06:44:59.346Z,12.42000008
2022-09-17T06:45:52.738Z,12.43000031
2022-09-17T06:46:49.126Z,12.43000031
2022-09-17T06:47:48.850Z,12.43999958
2022-09-17T06:49:44.540Z,12.43000031
2022-09-17T06:50:43.006Z,12.42000008
2022-09-17T06:51:39.963Z,12.40999985
2022-09-17T06:52:42.072Z,12.39000034
2022-09-17T06:54:38.042Z,12.42000008
2022-09-17T06:55:30.898Z,12.42000008
2022-09-17T06:56:33.115Z,12.43999958
2022-09-17T06:57:26.104Z,12.43999958
2022-09-17T06:58:28.583Z,12.44999981
2022-09-17T06:59:21.713Z,12.47000027
2022-09-17T07:00:24.073Z,12.47000027
2022-09-17T07:01:22.120Z,12.47000027
2022-09-17T07:02:19.590Z,12.5
2022-09-17T07:03:12.422Z,12.52000046
2022-09-17T07:04:36.238Z,12.55000019
2022-09-17T07:05:16.930Z,12.57999992
2022-09-17T07:06:15.097Z,12.60999966
2022-09-17T07:07:15.567Z,12.63000011
2022-09-17T07:08:13.322Z,12.61999989
2022-09-17T07:10:09.743Z,12.64000034
2022-09-17T07:11:09.997Z,12.64000034
2022-09-17T07:12:05.369Z,12.63000011
2022-09-17T07:13:06.243Z,12.63000011
2022-09-17T07:15:06.369Z,12.65999985
2022-09-17T07:15:59.814Z,12.69999981
2022-09-17T07:16:59.919Z,12.73999977
2022-09-17T07:17:55.594Z,12.72999954
2022-09-17T07:19:51.621Z,12.75
2022-09-17T07:20:53.532Z,12.76000023
2022-09-17T07:21:49.875Z,12.76000023
2022-09-17T07:22:50.284Z,12.75
2022-09-17T07:24:49.729Z,12.77999973
2022-09-17T07:25:43.024Z,12.81000042
2022-09-17T07:26:48.440Z,12.82999992
2022-09-17T07:27:41.686Z,12.85999966
2022-09-17T07:29:37.901Z,12.89000034
2022-09-17T07:30:38.364Z,12.89000034
2022-09-17T07:31:34.249Z,12.92000008
2022-09-17T07:32:34.455Z,12.92000008
2022-09-17T07:34:29.293Z,13
2022-09-17T07:35:32.750Z,13.02000046
2022-09-17T07:36:27.012Z,13.05000019
2022-09-17T07:37:29.787Z,13.06000042
2022-09-17T07:38:23.907Z,13.07999992
2022-09-17T07:39:22.035Z,13.10000038
2022-09-17T07:40:22.390Z,13.09000015
2022-09-17T07:41:17.849Z,13.07999992
2022-09-17T07:42:21.077Z,13.07999992
2022-09-17T07:43:14.481Z,13.09000015
2022-09-17T07:44:18.518Z,13.10000038
2022-09-17T07:45:12.773Z,13.10000038
2022-09-17T07:46:15.475Z,13.11999989
2022-09-17T07:47:09.892Z,13.14000034
2022-09-17T07:48:12.586Z,13.14000034
2022-09-17T07:49:06.351Z,13.17000008
2022-09-17T07:50:43.929Z,13.27000046
2022-09-17T07:51:24.007Z,13.31000042
2022-09-17T07:52:21.989Z,13.35000038
2022-09-17T07:53:19.332Z,13.38000011
2022-09-17T07:55:14.671Z,13.38000011
2022-09-17T07:56:13.975Z,13.38000011
2022-09-17T07:57:12.431Z,13.39999962
2022-09-17T07:58:08.053Z,13.43000031
2022-09-17T07:59:05.966Z,13.47000027
2022-09-17T08:00:09.388Z,13.51000023
2022-09-17T08:01:02.717Z,13.52999973
2022-09-17T08:02:03.722Z,13.59000015
2022-09-17T08:02:59.812Z,13.64000034
2022-09-17T08:04:00.713Z,13.68999958
2022-09-17T08:04:57.012Z,13.75
2022-09-17T08:05:57.935Z,13.80000019
2022-09-17T08:06:54.580Z,13.84000015
2022-09-17T08:07:56.196Z,13.90999985
2022-09-17T08:09:57.476Z,14.02999973
2022-09-17T08:10:52.587Z,14.10000038
2022-09-17T08:11:56.614Z,14.17000008
2022-09-17T08:12:52.136Z,14.25
2022-09-17T08:14:50.531Z,14.35000038
2022-09-17T08:15:55.346Z,14.40999985
2022-09-17T08:16:50.158Z,14.46000004
2022-09-17T08:17:52.531Z,14.52000046
2022-09-17T08:19:55.306Z,14.64999962
2022-09-17T08:20:50.546Z,14.69999981
2022-09-17T08:21:53.333Z,14.80000019
2022-09-17T08:22:52.646Z,14.85000038
2022-09-17T08:23:54.119Z,14.92000008
2022-09-17T08:24:52.205Z,14.97999954
2022-09-17T08:25:57.509Z,15.06000042
2022-09-17T08:26:58.138Z,15.11999989
2022-09-17T08:27:54.167Z,15.18000031
2022-09-17T08:29:35.223Z,15.26000023
2022-09-17T08:30:14.112Z,15.35999966
2022-09-17T08:31:13.448Z,15.39000034
2022-09-17T08:32:15.033Z,15.44999981
2022-09-17T08:33:11.744Z,15.47000027
2022-09-17T08:35:10.224Z,15.52999973
2022-09-17T08:36:11.888Z,15.56999969
2022-09-17T08:37:09.474Z,15.60999966
2022-09-17T08:38:13.195Z,15.67000008
2022-09-17T08:39:07.408Z,15.71000004
2022-09-17T08:40:09.076Z,15.76000023
2022-09-17T08:41:05.330Z,15.77999973
2022-09-17T08:42:04.695Z,15.72999954
2022-09-17T08:43:02.404Z,15.65999985
2022-09-17T08:43:57.708Z,15.53999996
2022-09-17T08:45:00.789Z,15.52000046
2022-09-17T08:45:56.233Z,15.53999996
2022-09-17T08:46:58.560Z,15.52999973
2022-09-17T08:47:50.902Z,15.48999977
2022-09-17T08:49:46.981Z,15.40999985
2022-09-17T08:50:49.317Z,15.36999989
2022-09-17T08:51:42.734Z,15.36999989
2022-09-17T08:52:41.125Z,15.40999985
2022-09-17T08:54:36.013Z,15.39999962
2022-09-17T08:55:39.392Z,15.40999985
2022-09-17T08:56:33.640Z,15.44999981
2022-09-17T08:57:37.066Z,15.51000023
2022-09-17T08:59:32.577Z,15.64999962
2022-09-17T09:00:29.209Z,15.72999954
2022-09-17T09:01:30.982Z,15.78999996
2022-09-17T09:02:27.602Z,15.82999992
2022-09-17T09:03:29.898Z,15.82999992
2022-09-17T09:04:24.106Z,15.84000015
2022-09-17T09:05:27.752Z,15.86999989
2022-09-17T09:07:06.653Z,15.97000027
2022-09-17T09:07:46.320Z,15.98999977
2022-09-17T09:08:44.693Z,15.98999977
2022-09-17T09:09:44.525Z,15.97000027
2022-09-17T09:10:40.545Z,15.92000008
2022-09-17T09:11:42.143Z,15.97000027
2022-09-17T09:12:38.709Z,16
2022-09-17T09:14:37.005Z,16.10000038
2022-09-17T09:15:38.547Z,16.13999939
2022-09-17T09:16:35.614Z,16.21999931
2022-09-17T09:17:36.978Z,16.27000046
2022-09-17T09:18:33.513Z,16.27000046
2022-09-17T09:19:36.776Z,16.27000046
2022-09-17T09:20:32.201Z,16.27000046
2022-09-17T09:21:32.403Z,16.32999992
2022-09-17T09:22:29.041Z,16.35000038
2022-09-17T09:23:33.394Z,16.36000061
2022-09-17T09:25:32.318Z,16.47999954
2022-09-17T09:26:25.662Z,16.53000069
2022-09-17T09:27:28.375Z,16.53000069
2022-09-17T09:28:22.651Z,16.47999954
2022-09-17T09:29:23.180Z,16.45000076
2022-09-17T09:30:20.399Z,16.45999908
2022-09-17T09:31:22.228Z,16.52000046
2022-09-17T09:32:18.615Z,16.54999924
2022-09-17T09:33:16.270Z,16.53000069
2022-09-17T09:35:13.320Z,16.48999977
2022-09-17T09:36:17.847Z,16.47999954
2022-09-17T09:37:12.044Z,16.51000023
2022-09-17T09:38:15.836Z,16.56999969
2022-09-17T09:39:08.383Z,16.56999969
2022-09-17T09:40:08.718Z,16.54000092
2022-09-17T09:41:04.855Z,16.5
2022-09-17T09:42:03.121Z,16.44000053
2022-09-17T09:43:01.574Z,16.42000008
2022-09-17T09:45:38.671Z,16.47999954
2022-09-17T09:48:30.273Z,17
2022-09-17T09:49:09.334Z,17.02000046
2022-09-17T09:50:06.938Z,17.01000023
2022-09-17T09:51:07.355Z,16.96999931
2022-09-17T09:52:02.256Z,16.89999962
2022-09-17T09:53:02.090Z,16.87000084
2022-09-17T09:54:56.660Z,16.75
2022-09-17T09:55:50.966Z,16.70999908
2022-09-17T09:56:49.897Z,16.67000008
2022-09-17T09:57:44.222Z,16.61000061
2022-09-17T09:59:39.202Z,16.47999954
2022-09-17T10:00:32.971Z,16.38999939
2022-09-17T10:01:29.044Z,16.32999992
2022-09-17T10:02:28.397Z,16.25
2022-09-17T10:03:21.984Z,16.18000031
2022-09-17T10:04:17.295Z,16.07999992
2022-09-17T10:05:15.424Z,15.98999977
2022-09-17T10:06:08.676Z,15.93000031
2022-09-17T10:07:05.971Z,15.88000011
2022-09-17T10:08:05.701Z,15.84000015
2022-09-17T10:09:57.496Z,15.75
2022-09-17T10:10:48.425Z,15.68999958
2022-09-17T10:11:49.160Z,15.68000031
2022-09-17T10:12:40.234Z,15.64000034
2022-09-17T10:14:36.054Z,15.56000042
2022-09-17T10:15:29.591Z,15.52999973
2022-09-17T10:16:30.118Z,15.43000031
2022-09-17T10:17:21.601Z,15.39000034
2022-09-17T10:18:17.339Z,15.40999985
2022-09-17T10:19:16.119Z,15.40999985
2022-09-17T10:20:46.049Z,15.43000031
2022-09-17T10:21:26.455Z,15.46000004
2022-09-17T10:22:27.067Z,15.52000046
2022-09-17T10:23:22.891Z,15.5
2022-09-17T10:25:21.794Z,15.5
2022-09-17T10:26:17.183Z,15.5
2022-09-17T10:27:17.620Z,15.47999954
2022-09-17T10:28:13.869Z,15.5
2022-09-17T10:30:09.800Z,15.55000019
2022-09-17T10:31:10.462Z,15.56000042
2022-09-17T10:32:05.768Z,15.56999969
2022-09-17T10:33:05.790Z,15.56000042
2022-09-17T10:35:02.169Z,15.56000042
2022-09-17T10:35:57.513Z,15.60000038
2022-09-17T10:36:57.763Z,15.61999989
2022-09-17T10:37:53.388Z,15.63000011
2022-09-17T10:39:49.430Z,15.65999985
2022-09-17T10:40:49.282Z,15.65999985
2022-09-17T10:41:44.442Z,15.65999985
2022-09-17T10:42:43.972Z,15.64000034
2022-09-17T10:43:40.991Z,15.60000038
2022-09-17T10:44:38.885Z,15.59000015
2022-09-17T10:45:33.704Z,15.56999969
2022-09-17T10:46:36.004Z,15.53999996
2022-09-17T10:47:28.713Z,15.52000046
2022-09-17T10:48:30.544Z,15.48999977
2022-09-17T10:50:26.731Z,15.47000027
2022-09-17T10:51:20.044Z,15.47999954
2022-09-17T10:52:22.733Z,15.47000027
2022-09-17T10:53:18.248Z,15.46000004
2022-09-17T10:55:49.951Z,15.52000046
2022-09-17T10:56:29.441Z,15.53999996
2022-09-17T10:57:26.869Z,15.53999996
2022-09-17T10:58:26.274Z,15.48999977
2022-09-17T11:00:21.284Z,15.39000034
2022-09-17T11:01:16.611Z,15.34000015
2022-09-17T11:02:15.506Z,15.27999973
2022-09-17T11:03:13.084Z,15.21000004
2022-09-17T11:04:20.410Z,15.18999958
2022-09-17T11:05:15.210Z,15.14000034
2022-09-17T11:06:15.582Z,15.09000015
2022-09-17T11:07:19.877Z,15.03999996
2022-09-17T11:08:23.206Z,14.97999954
2022-09-17T11:10:23.326Z,14.77999973
2022-09-17T11:11:14.944Z,14.75
2022-09-17T11:12:14.230Z,14.72999954
2022-09-17T11:13:09.470Z,14.64999962
2022-09-17T11:15:02.817Z,14.53999996
2022-09-17T11:16:05.691Z,14.43000031
2022-09-17T11:17:00.125Z,14.30000019
2022-09-17T11:17:59.599Z,14.19999981
2022-09-17T11:18:58.271Z,14.09000015
2022-09-17T11:19:53.598Z,13.93999958
2022-09-17T11:20:51.694Z,13.76000023
2022-09-17T11:21:46.674Z,13.65999985
2022-09-17T11:22:49.738Z,13.57999992
2022-09-17T11:24:39.783Z,13.42000008
2022-09-17T11:25:36.224Z,13.34000015
2022-09-17T11:26:34.730Z,13.31000042
2022-09-17T11:27:32.003Z,13.25
2022-09-17T11:28:28.297Z,13.22999954
2022-09-17T11:29:24.850Z,13.21000004
2022-09-17T11:30:21.157Z,13.17000008
2022-09-17T11:31:21.717Z,13.15999985
2022-09-17T11:31:24.409Z,13.15999985
2022-09-17T11:32:14.269Z,13.15999985
2022-09-17T11:33:10.815Z,13.15999985
2022-09-17T11:35:06.738Z,13.21000004
2022-09-17T11:36:39.291Z,13.18000031
2022-09-17T11:37:19.626Z,13.26000023
2022-09-17T11:38:19.880Z,13.35000038
2022-09-17T11:39:17.805Z,13.36999989
2022-09-17T11:40:13.219Z,13.38000011
2022-09-17T11:41:14.885Z,13.40999985
2022-09-17T11:42:10.805Z,13.36999989
2022-09-17T11:43:10.772Z,13.35000038
2022-09-17T11:45:03.588Z,13.32999992
2022-09-17T11:46:03.590Z,13.31000042
2022-09-17T11:46:59.104Z,13.31999969
2022-09-17T11:47:56.397Z,13.32999992
2022-09-17T11:48:56.018Z,13.34000015
2022-09-17T11:49:51.298Z,13.34000015
2022-09-17T11:50:48.667Z,13.34000015
2022-09-17T11:51:48.606Z,13.34000015
2022-09-17T11:52:43.788Z,13.32999992
2022-09-17T11:53:41.164Z,13.32999992
2022-09-17T11:54:41.357Z,13.35999966
2022-09-17T11:55:36.479Z,13.39999962
2022-09-17T11:56:34.344Z,13.42000008
2022-09-17T11:57:34.096Z,13.40999985
2022-09-17T11:58:29.369Z,13.43999958
2022-09-17T11:59:26.844Z,13.47000027
2022-09-17T12:00:26.815Z,13.47999954
2022-09-17T12:01:22.004Z,13.48999977
2022-09-17T12:02:19.903Z,13.51000023
2022-09-17T12:03:18.971Z,13.51000023
2022-09-17T12:05:12.851Z,13.55000019
2022-09-17T12:06:57.586Z,13.64999962
2022-09-17T12:07:37.484Z,13.72000027
2022-09-17T12:09:35.695Z,13.85000038
2022-09-17T12:10:31.434Z,13.88000011
2022-09-17T12:11:32.301Z,13.92000008
2022-09-17T12:12:48.430Z,13.94999981